Weather at Megiddo Airport

Public forecast

Using degrees Celsius for public forecast. Weather courtesy of forecast.io.

Closest aviation weather report (METAR) to Megiddo Airport

Closest report is Haifa International Airport, 15.8 nm (29.3 km) NW. Retrieved 2021/10/27 09:50 UTC (29 minutes ago):

LLHA 270950Z 32007KT CAVOK 25/18 Q1016

Closest aviation forecast (TAF) to Megiddo Airport

Closest forecast is Haifa International Airport, 15.8 nm (29.3 km) NW. Retrieved 2021/10/27 06:00 UTC (4 hours ago):

TAF LLHA 270505Z 2706/2806 VRB03KT 9999 FEW030 BECMG 2707/2709 34010KT BECMG 2718/2720 VRB03KT 9999 FEW020 TX26/2710Z TN17/2804Z